sensor_id;sensor_type;location;lat;lon;timestamp;P1;durP1;ratioP1;P2;durP2;ratioP2
27039;SDS011;14589;51.578;7.306;2023-05-07T00:02:12;8.38;;;5.68;;
27039;SDS011;14589;51.578;7.306;2023-05-07T00:04:43;7.97;;;5.97;;
27039;SDS011;14589;51.578;7.306;2023-05-07T00:07:14;7.53;;;5.10;;
27039;SDS011;14589;51.578;7.306;2023-05-07T00:09:45;10.50;;;6.38;;
27039;SDS011;14589;51.578;7.306;2023-05-07T00:12:15;8.90;;;6.38;;
27039;SDS011;14589;51.578;7.306;2023-05-07T00:14:46;10.85;;;5.63;;
27039;SDS011;14589;51.578;7.306;2023-05-07T00:17:16;8.70;;;5.30;;
27039;SDS011;14589;51.578;7.306;2023-05-07T00:19:47;8.25;;;5.03;;
27039;SDS011;14589;51.578;7.306;2023-05-07T00:22:17;9.20;;;5.45;;
27039;SDS011;14589;51.578;7.306;2023-05-07T00:24:48;8.68;;;6.63;;
27039;SDS011;14589;51.578;7.306;2023-05-07T00:27:18;11.38;;;7.85;;
27039;SDS011;14589;51.578;7.306;2023-05-07T00:29:48;9.73;;;6.70;;
27039;SDS011;14589;51.578;7.306;2023-05-07T00:32:19;13.52;;;10.15;;
27039;SDS011;14589;51.578;7.306;2023-05-07T00:34:50;13.63;;;9.27;;
27039;SDS011;14589;51.578;7.306;2023-05-07T00:37:21;11.25;;;8.57;;
27039;SDS011;14589;51.578;7.306;2023-05-07T00:39:51;11.32;;;8.35;;
27039;SDS011;14589;51.578;7.306;2023-05-07T00:42:21;10.80;;;8.30;;
27039;SDS011;14589;51.578;7.306;2023-05-07T00:44:52;10.50;;;7.78;;
27039;SDS011;14589;51.578;7.306;2023-05-07T00:47:23;11.93;;;8.65;;
27039;SDS011;14589;51.578;7.306;2023-05-07T00:49:55;11.52;;;7.57;;
27039;SDS011;14589;51.578;7.306;2023-05-07T00:52:27;13.13;;;9.45;;
27039;SDS011;14589;51.578;7.306;2023-05-07T00:57:36;12.25;;;8.57;;
27039;SDS011;14589;51.578;7.306;2023-05-07T01:00:07;12.60;;;9.48;;
27039;SDS011;14589;51.578;7.306;2023-05-07T01:02:39;13.60;;;9.35;;
27039;SDS011;14589;51.578;7.306;2023-05-07T01:05:11;10.10;;;6.57;;
27039;SDS011;14589;51.578;7.306;2023-05-07T01:07:43;9.45;;;7.47;;
27039;SDS011;14589;51.578;7.306;2023-05-07T01:10:13;12.50;;;7.93;;
27039;SDS011;14589;51.578;7.306;2023-05-07T01:12:45;12.57;;;8.30;;
27039;SDS011;14589;51.578;7.306;2023-05-07T01:17:47;11.02;;;7.15;;
27039;SDS011;14589;51.578;7.306;2023-05-07T01:20:28;11.48;;;8.27;;
27039;SDS011;14589;51.578;7.306;2023-05-07T01:23:00;12.52;;;7.28;;
27039;SDS011;14589;51.578;7.306;2023-05-07T01:25:31;8.85;;;5.53;;
27039;SDS011;14589;51.578;7.306;2023-05-07T01:28:04;9.85;;;5.93;;
27039;SDS011;14589;51.578;7.306;2023-05-07T01:30:38;10.55;;;6.68;;
27039;SDS011;14589;51.578;7.306;2023-05-07T01:33:13;13.23;;;8.82;;
27039;SDS011;14589;51.578;7.306;2023-05-07T01:35:50;11.27;;;7.63;;
27039;SDS011;14589;51.578;7.306;2023-05-07T01:38:22;11.65;;;8.18;;
27039;SDS011;14589;51.578;7.306;2023-05-07T01:40:53;9.98;;;6.30;;
27039;SDS011;14589;51.578;7.306;2023-05-07T01:43:24;9.13;;;6.15;;
27039;SDS011;14589;51.578;7.306;2023-05-07T01:45:55;15.05;;;7.82;;
27039;SDS011;14589;51.578;7.306;2023-05-07T01:48:27;11.63;;;7.25;;
27039;SDS011;14589;51.578;7.306;2023-05-07T01:50:58;9.80;;;6.57;;
27039;SDS011;14589;51.578;7.306;2023-05-07T01:53:34;11.77;;;7.53;;
27039;SDS011;14589;51.578;7.306;2023-05-07T01:56:06;11.95;;;7.32;;
27039;SDS011;14589;51.578;7.306;2023-05-07T01:58:38;10.32;;;7.60;;
27039;SDS011;14589;51.578;7.306;2023-05-07T02:01:08;8.73;;;6.35;;
27039;SDS011;14589;51.578;7.306;2023-05-07T02:03:39;9.30;;;7.35;;
27039;SDS011;14589;51.578;7.306;2023-05-07T02:06:16;8.23;;;5.65;;
27039;SDS011;14589;51.578;7.306;2023-05-07T02:08:47;10.02;;;6.82;;
27039;SDS011;14589;51.578;7.306;2023-05-07T02:11:19;9.20;;;5.53;;
27039;SDS011;14589;51.578;7.306;2023-05-07T02:13:49;8.25;;;5.85;;
27039;SDS011;14589;51.578;7.306;2023-05-07T02:16:20;9.85;;;6.05;;
27039;SDS011;14589;51.578;7.306;2023-05-07T02:18:52;10.48;;;7.68;;
27039;SDS011;14589;51.578;7.306;2023-05-07T02:21:22;10.20;;;6.80;;
27039;SDS011;14589;51.578;7.306;2023-05-07T02:23:53;9.52;;;5.75;;
27039;SDS011;14589;51.578;7.306;2023-05-07T02:26:23;10.63;;;6.88;;
27039;SDS011;14589;51.578;7.306;2023-05-07T02:28:54;10.95;;;7.45;;
27039;SDS011;14589;51.578;7.306;2023-05-07T02:31:24;10.30;;;7.43;;
27039;SDS011;14589;51.578;7.306;2023-05-07T02:33:55;12.77;;;8.15;;
27039;SDS011;14589;51.578;7.306;2023-05-07T02:36:25;10.88;;;5.68;;
27039;SDS011;14589;51.578;7.306;2023-05-07T02:39:06;11.77;;;7.68;;
27039;SDS011;14589;51.578;7.306;2023-05-07T02:41:37;10.85;;;6.10;;
27039;SDS011;14589;51.578;7.306;2023-05-07T02:44:07;16.70;;;9.00;;
27039;SDS011;14589;51.578;7.306;2023-05-07T02:46:38;11.35;;;6.85;;
27039;SDS011;14589;51.578;7.306;2023-05-07T02:49:12;10.95;;;6.97;;
27039;SDS011;14589;51.578;7.306;2023-05-07T02:51:42;8.80;;;6.70;;
27039;SDS011;14589;51.578;7.306;2023-05-07T02:54:19;11.25;;;6.78;;
27039;SDS011;14589;51.578;7.306;2023-05-07T02:56:50;9.77;;;6.43;;
27039;SDS011;14589;51.578;7.306;2023-05-07T02:59:20;12.70;;;8.07;;
27039;SDS011;14589;51.578;7.306;2023-05-07T03:01:50;13.05;;;8.85;;
27039;SDS011;14589;51.578;7.306;2023-05-07T03:04:21;14.82;;;7.90;;
27039;SDS011;14589;51.578;7.306;2023-05-07T03:06:51;11.40;;;7.40;;
27039;SDS011;14589;51.578;7.306;2023-05-07T03:09:22;10.20;;;6.57;;
27039;SDS011;14589;51.578;7.306;2023-05-07T03:11:52;10.77;;;6.45;;
27039;SDS011;14589;51.578;7.306;2023-05-07T03:14:22;10.48;;;6.78;;
27039;SDS011;14589;51.578;7.306;2023-05-07T03:16:53;8.20;;;5.68;;
27039;SDS011;14589;51.578;7.306;2023-05-07T03:19:23;9.75;;;6.97;;
27039;SDS011;14589;51.578;7.306;2023-05-07T03:21:54;8.25;;;5.00;;
27039;SDS011;14589;51.578;7.306;2023-05-07T03:24:25;7.22;;;4.78;;
27039;SDS011;14589;51.578;7.306;2023-05-07T03:26:56;7.53;;;5.03;;
27039;SDS011;14589;51.578;7.306;2023-05-07T03:29:27;9.07;;;5.18;;
27039;SDS011;14589;51.578;7.306;2023-05-07T03:31:58;11.60;;;6.57;;
27039;SDS011;14589;51.578;7.306;2023-05-07T03:34:28;9.98;;;5.75;;
27039;SDS011;14589;51.578;7.306;2023-05-07T03:36:59;8.93;;;5.00;;
27039;SDS011;14589;51.578;7.306;2023-05-07T03:39:29;7.80;;;5.50;;
27039;SDS011;14589;51.578;7.306;2023-05-07T03:42:00;9.85;;;5.03;;
27039;SDS011;14589;51.578;7.306;2023-05-07T03:44:31;10.48;;;5.70;;
27039;SDS011;14589;51.578;7.306;2023-05-07T03:47:04;6.38;;;4.75;;
27039;SDS011;14589;51.578;7.306;2023-05-07T03:49:35;9.20;;;3.65;;
27039;SDS011;14589;51.578;7.306;2023-05-07T03:52:06;9.85;;;6.00;;
27039;SDS011;14589;51.578;7.306;2023-05-07T03:54:37;9.73;;;5.88;;
27039;SDS011;14589;51.578;7.306;2023-05-07T03:57:07;10.82;;;5.50;;
27039;SDS011;14589;51.578;7.306;2023-05-07T03:59:38;8.55;;;5.18;;
27039;SDS011;14589;51.578;7.306;2023-05-07T04:02:09;10.15;;;6.78;;
27039;SDS011;14589;51.578;7.306;2023-05-07T04:04:39;11.60;;;7.60;;
27039;SDS011;14589;51.578;7.306;2023-05-07T04:07:10;9.18;;;5.65;;
27039;SDS011;14589;51.578;7.306;2023-05-07T04:09:45;10.18;;;6.10;;
27039;SDS011;14589;51.578;7.306;2023-05-07T04:12:15;10.82;;;6.70;;
27039;SDS011;14589;51.578;7.306;2023-05-07T04:14:46;8.57;;;5.28;;
27039;SDS011;14589;51.578;7.306;2023-05-07T04:17:17;7.82;;;6.15;;
27039;SDS011;14589;51.578;7.306;2023-05-07T04:19:47;12.40;;;7.28;;
27039;SDS011;14589;51.578;7.306;2023-05-07T04:22:20;10.20;;;5.53;;
27039;SDS011;14589;51.578;7.306;2023-05-07T04:24:51;8.95;;;6.28;;
27039;SDS011;14589;51.578;7.306;2023-05-07T04:27:21;11.30;;;7.78;;
27039;SDS011;14589;51.578;7.306;2023-05-07T04:29:52;9.25;;;5.88;;
27039;SDS011;14589;51.578;7.306;2023-05-07T04:32:25;13.32;;;8.55;;
27039;SDS011;14589;51.578;7.306;2023-05-07T04:34:57;10.32;;;6.80;;
27039;SDS011;14589;51.578;7.306;2023-05-07T04:37:27;10.25;;;6.20;;
27039;SDS011;14589;51.578;7.306;2023-05-07T04:39:58;13.63;;;8.93;;
27039;SDS011;14589;51.578;7.306;2023-05-07T04:42:29;10.13;;;6.90;;
27039;SDS011;14589;51.578;7.306;2023-05-07T04:45:00;9.88;;;5.60;;
27039;SDS011;14589;51.578;7.306;2023-05-07T04:47:32;15.45;;;9.27;;
27039;SDS011;14589;51.578;7.306;2023-05-07T04:50:06;8.70;;;5.40;;
27039;SDS011;14589;51.578;7.306;2023-05-07T04:52:37;13.10;;;8.48;;
27039;SDS011;14589;51.578;7.306;2023-05-07T04:55:09;11.32;;;6.95;;
27039;SDS011;14589;51.578;7.306;2023-05-07T04:57:42;11.48;;;7.00;;
27039;SDS011;14589;51.578;7.306;2023-05-07T05:00:15;9.20;;;6.65;;
27039;SDS011;14589;51.578;7.306;2023-05-07T05:02:49;16.38;;;6.20;;
27039;SDS011;14589;51.578;7.306;2023-05-07T05:05:23;13.10;;;7.50;;
27039;SDS011;14589;51.578;7.306;2023-05-07T05:07:56;14.55;;;6.90;;
27039;SDS011;14589;51.578;7.306;2023-05-07T05:10:27;10.23;;;6.45;;
27039;SDS011;14589;51.578;7.306;2023-05-07T05:12:57;12.35;;;7.07;;
27039;SDS011;14589;51.578;7.306;2023-05-07T05:15:28;9.55;;;6.50;;
27039;SDS011;14589;51.578;7.306;2023-05-07T05:17:59;9.20;;;7.40;;
27039;SDS011;14589;51.578;7.306;2023-05-07T05:20:29;8.27;;;6.00;;
27039;SDS011;14589;51.578;7.306;2023-05-07T05:23:00;9.20;;;5.43;;
27039;SDS011;14589;51.578;7.306;2023-05-07T05:25:30;9.93;;;6.22;;
27039;SDS011;14589;51.578;7.306;2023-05-07T05:28:02;8.25;;;6.35;;
27039;SDS011;14589;51.578;7.306;2023-05-07T05:30:35;8.60;;;5.47;;
27039;SDS011;14589;51.578;7.306;2023-05-07T05:33:06;8.93;;;5.75;;
27039;SDS011;14589;51.578;7.306;2023-05-07T05:35:37;27.50;;;15.95;;
27039;SDS011;14589;51.578;7.306;2023-05-07T05:38:10;17.63;;;11.20;;
27039;SDS011;14589;51.578;7.306;2023-05-07T05:40:40;10.38;;;6.40;;
27039;SDS011;14589;51.578;7.306;2023-05-07T05:43:11;7.80;;;5.03;;
27039;SDS011;14589;51.578;7.306;2023-05-07T05:45:42;7.18;;;4.25;;
27039;SDS011;14589;51.578;7.306;2023-05-07T05:48:12;5.90;;;4.10;;
27039;SDS011;14589;51.578;7.306;2023-05-07T05:57:28;6.90;;;3.58;;
27039;SDS011;14589;51.578;7.306;2023-05-07T06:13:18;7.03;;;4.38;;
27039;SDS011;14589;51.578;7.306;2023-05-07T06:15:49;8.93;;;3.55;;
27039;SDS011;14589;51.578;7.306;2023-05-07T06:18:20;9.68;;;3.65;;
27039;SDS011;14589;51.578;7.306;2023-05-07T06:20:51;7.10;;;4.07;;
27039;SDS011;14589;51.578;7.306;2023-05-07T06:23:28;10.52;;;3.22;;
27039;SDS011;14589;51.578;7.306;2023-05-07T06:25:59;5.95;;;3.75;;
27039;SDS011;14589;51.578;7.306;2023-05-07T06:28:34;5.40;;;3.70;;
27039;SDS011;14589;51.578;7.306;2023-05-07T06:31:14;7.07;;;3.40;;
27039;SDS011;14589;51.578;7.306;2023-05-07T06:33:49;9.30;;;4.05;;
27039;SDS011;14589;51.578;7.306;2023-05-07T06:36:20;8.98;;;3.33;;
27039;SDS011;14589;51.578;7.306;2023-05-07T06:38:51;5.78;;;4.20;;
27039;SDS011;14589;51.578;7.306;2023-05-07T06:41:21;4.72;;;2.78;;
27039;SDS011;14589;51.578;7.306;2023-05-07T06:43:52;7.65;;;3.45;;
27039;SDS011;14589;51.578;7.306;2023-05-07T06:46:34;5.95;;;2.03;;
27039;SDS011;14589;51.578;7.306;2023-05-07T06:49:04;5.65;;;3.20;;
27039;SDS011;14589;51.578;7.306;2023-05-07T06:51:35;7.00;;;3.45;;
27039;SDS011;14589;51.578;7.306;2023-05-07T06:54:07;5.88;;;3.25;;
27039;SDS011;14589;51.578;7.306;2023-05-07T06:56:40;7.05;;;3.30;;
27039;SDS011;14589;51.578;7.306;2023-05-07T06:59:12;6.00;;;4.28;;
27039;SDS011;14589;51.578;7.306;2023-05-07T07:01:44;5.28;;;2.63;;
27039;SDS011;14589;51.578;7.306;2023-05-07T07:04:16;5.35;;;2.95;;
27039;SDS011;14589;51.578;7.306;2023-05-07T07:06:49;7.10;;;3.42;;
27039;SDS011;14589;51.578;7.306;2023-05-07T07:09:22;9.82;;;3.92;;
27039;SDS011;14589;51.578;7.306;2023-05-07T07:11:53;6.05;;;3.88;;
27039;SDS011;14589;51.578;7.306;2023-05-07T07:14:23;5.18;;;2.88;;
27039;SDS011;14589;51.578;7.306;2023-05-07T07:16:55;6.32;;;4.13;;
27039;SDS011;14589;51.578;7.306;2023-05-07T07:21:59;6.55;;;4.22;;
27039;SDS011;14589;51.578;7.306;2023-05-07T07:24:30;8.75;;;3.92;;
27039;SDS011;14589;51.578;7.306;2023-05-07T07:27:03;7.13;;;4.43;;
27039;SDS011;14589;51.578;7.306;2023-05-07T07:29:35;6.40;;;3.65;;
27039;SDS011;14589;51.578;7.306;2023-05-07T07:32:06;7.85;;;4.28;;
27039;SDS011;14589;51.578;7.306;2023-05-07T07:34:36;7.15;;;4.50;;
27039;SDS011;14589;51.578;7.306;2023-05-07T07:37:07;8.43;;;4.80;;
27039;SDS011;14589;51.578;7.306;2023-05-07T07:39:39;7.47;;;4.45;;
27039;SDS011;14589;51.578;7.306;2023-05-07T07:42:11;6.45;;;3.63;;
27039;SDS011;14589;51.578;7.306;2023-05-07T07:44:42;9.05;;;4.43;;
27039;SDS011;14589;51.578;7.306;2023-05-07T07:49:46;8.52;;;4.10;;
27039;SDS011;14589;51.578;7.306;2023-05-07T07:52:16;6.97;;;4.35;;
27039;SDS011;14589;51.578;7.306;2023-05-07T07:54:49;7.60;;;4.32;;
27039;SDS011;14589;51.578;7.306;2023-05-07T07:57:20;9.50;;;6.65;;
27039;SDS011;14589;51.578;7.306;2023-05-07T07:59:51;8.00;;;5.18;;
27039;SDS011;14589;51.578;7.306;2023-05-07T08:02:23;6.72;;;4.78;;
27039;SDS011;14589;51.578;7.306;2023-05-07T08:04:54;6.97;;;4.93;;
27039;SDS011;14589;51.578;7.306;2023-05-07T08:07:26;7.15;;;4.38;;
27039;SDS011;14589;51.578;7.306;2023-05-07T08:09:56;7.30;;;3.78;;
27039;SDS011;14589;51.578;7.306;2023-05-07T08:12:28;8.07;;;4.82;;
27039;SDS011;14589;51.578;7.306;2023-05-07T08:14:59;9.75;;;3.97;;
27039;SDS011;14589;51.578;7.306;2023-05-07T08:17:29;9.00;;;4.55;;
27039;SDS011;14589;51.578;7.306;2023-05-07T08:20:00;8.60;;;4.82;;
27039;SDS011;14589;51.578;7.306;2023-05-07T08:22:31;8.27;;;5.45;;
27039;SDS011;14589;51.578;7.306;2023-05-07T08:25:01;6.95;;;4.53;;
27039;SDS011;14589;51.578;7.306;2023-05-07T08:27:32;9.10;;;4.78;;
27039;SDS011;14589;51.578;7.306;2023-05-07T08:30:03;10.45;;;5.28;;
27039;SDS011;14589;51.578;7.306;2023-05-07T08:32:34;7.72;;;5.22;;
27039;SDS011;14589;51.578;7.306;2023-05-07T08:35:05;7.38;;;5.07;;
27039;SDS011;14589;51.578;7.306;2023-05-07T08:37:35;8.20;;;5.38;;
27039;SDS011;14589;51.578;7.306;2023-05-07T08:40:06;7.75;;;3.95;;
27039;SDS011;14589;51.578;7.306;2023-05-07T08:42:38;7.95;;;5.82;;
27039;SDS011;14589;51.578;7.306;2023-05-07T08:45:10;10.32;;;5.63;;
27039;SDS011;14589;51.578;7.306;2023-05-07T09:02:52;10.50;;;6.38;;
27039;SDS011;14589;51.578;7.306;2023-05-07T09:07:54;10.23;;;5.55;;
27039;SDS011;14589;51.578;7.306;2023-05-07T09:10:27;9.25;;;5.10;;
27039;SDS011;14589;51.578;7.306;2023-05-07T09:12:57;8.70;;;5.72;;
27039;SDS011;14589;51.578;7.306;2023-05-07T09:15:28;10.70;;;6.28;;
27039;SDS011;14589;51.578;7.306;2023-05-07T09:17:59;9.73;;;6.53;;
27039;SDS011;14589;51.578;7.306;2023-05-07T09:20:37;9.38;;;5.60;;
27039;SDS011;14589;51.578;7.306;2023-05-07T09:23:08;11.10;;;6.32;;
27039;SDS011;14589;51.578;7.306;2023-05-07T09:25:40;10.02;;;5.72;;
27039;SDS011;14589;51.578;7.306;2023-05-07T09:28:18;9.13;;;5.90;;
27039;SDS011;14589;51.578;7.306;2023-05-07T09:33:35;12.68;;;6.40;;
27039;SDS011;14589;51.578;7.306;2023-05-07T09:36:08;8.77;;;5.35;;
27039;SDS011;14589;51.578;7.306;2023-05-07T09:38:41;9.18;;;6.10;;
27039;SDS011;14589;51.578;7.306;2023-05-07T09:41:12;10.20;;;5.50;;
27039;SDS011;14589;51.578;7.306;2023-05-07T09:44:06;11.73;;;5.82;;
27039;SDS011;14589;51.578;7.306;2023-05-07T09:46:42;7.75;;;5.57;;
27039;SDS011;14589;51.578;7.306;2023-05-07T09:49:22;10.27;;;6.72;;
27039;SDS011;14589;51.578;7.306;2023-05-07T09:51:57;9.60;;;5.57;;
27039;SDS011;14589;51.578;7.306;2023-05-07T09:54:30;9.65;;;5.82;;
27039;SDS011;14589;51.578;7.306;2023-05-07T09:57:05;9.05;;;5.68;;
27039;SDS011;14589;51.578;7.306;2023-05-07T09:59:37;9.48;;;4.90;;
27039;SDS011;14589;51.578;7.306;2023-05-07T10:02:12;10.60;;;5.35;;
27039;SDS011;14589;51.578;7.306;2023-05-07T10:04:51;8.85;;;4.82;;
27039;SDS011;14589;51.578;7.306;2023-05-07T10:07:27;8.65;;;5.05;;
27039;SDS011;14589;51.578;7.306;2023-05-07T10:10:03;8.48;;;5.35;;
27039;SDS011;14589;51.578;7.306;2023-05-07T10:12:40;6.32;;;4.88;;
27039;SDS011;14589;51.578;7.306;2023-05-07T10:15:16;9.10;;;6.97;;
27039;SDS011;14589;51.578;7.306;2023-05-07T10:17:52;6.75;;;5.00;;
27039;SDS011;14589;51.578;7.306;2023-05-07T10:20:24;9.30;;;6.13;;
27039;SDS011;14589;51.578;7.306;2023-05-07T10:22:58;7.75;;;4.88;;
27039;SDS011;14589;51.578;7.306;2023-05-07T10:25:36;6.05;;;4.72;;
27039;SDS011;14589;51.578;7.306;2023-05-07T10:28:12;7.30;;;4.03;;
27039;SDS011;14589;51.578;7.306;2023-05-07T10:31:01;7.22;;;5.13;;
27039;SDS011;14589;51.578;7.306;2023-05-07T10:33:53;9.05;;;4.10;;
27039;SDS011;14589;51.578;7.306;2023-05-07T10:36:26;6.88;;;3.53;;
27039;SDS011;14589;51.578;7.306;2023-05-07T10:38:58;8.32;;;4.25;;
27039;SDS011;14589;51.578;7.306;2023-05-07T10:41:29;6.05;;;3.67;;
27039;SDS011;14589;51.578;7.306;2023-05-07T10:44:00;7.85;;;4.70;;
27039;SDS011;14589;51.578;7.306;2023-05-07T10:46:34;7.53;;;4.25;;
27039;SDS011;14589;51.578;7.306;2023-05-07T10:49:14;7.43;;;4.25;;
27039;SDS011;14589;51.578;7.306;2023-05-07T10:52:12;5.53;;;3.53;;
27039;SDS011;14589;51.578;7.306;2023-05-07T10:58:29;4.88;;;2.55;;
27039;SDS011;14589;51.578;7.306;2023-05-07T11:01:08;6.65;;;3.28;;
27039;SDS011;14589;51.578;7.306;2023-05-07T11:04:29;5.47;;;3.75;;
27039;SDS011;14589;51.578;7.306;2023-05-07T11:07:03;7.53;;;4.20;;
27039;SDS011;14589;51.578;7.306;2023-05-07T11:15:13;6.88;;;4.35;;
27039;SDS011;14589;51.578;7.306;2023-05-07T11:17:53;7.63;;;3.95;;
27039;SDS011;14589;51.578;7.306;2023-05-07T11:26:12;8.23;;;5.05;;
27039;SDS011;14589;51.578;7.306;2023-05-07T11:28:43;5.80;;;2.75;;
27039;SDS011;14589;51.578;7.306;2023-05-07T11:31:15;5.95;;;3.10;;
27039;SDS011;14589;51.578;7.306;2023-05-07T11:33:51;5.95;;;3.67;;
27039;SDS011;14589;51.578;7.306;2023-05-07T11:36:24;7.00;;;3.83;;
27039;SDS011;14589;51.578;7.306;2023-05-07T11:38:59;6.28;;;3.67;;
27039;SDS011;14589;51.578;7.306;2023-05-07T11:41:36;11.00;;;4.53;;
27039;SDS011;14589;51.578;7.306;2023-05-07T11:44:09;6.05;;;4.35;;
27039;SDS011;14589;51.578;7.306;2023-05-07T11:46:42;7.50;;;4.18;;
27039;SDS011;14589;51.578;7.306;2023-05-07T11:49:14;5.80;;;3.33;;
27039;SDS011;14589;51.578;7.306;2023-05-07T11:51:45;6.35;;;3.58;;
27039;SDS011;14589;51.578;7.306;2023-05-07T11:54:16;7.07;;;4.22;;
27039;SDS011;14589;51.578;7.306;2023-05-07T11:56:47;5.63;;;3.38;;
27039;SDS011;14589;51.578;7.306;2023-05-07T11:59:17;7.78;;;3.63;;
27039;SDS011;14589;51.578;7.306;2023-05-07T12:01:48;5.93;;;4.63;;
27039;SDS011;14589;51.578;7.306;2023-05-07T12:04:19;6.47;;;3.75;;
27039;SDS011;14589;51.578;7.306;2023-05-07T12:06:53;7.28;;;4.03;;
27039;SDS011;14589;51.578;7.306;2023-05-07T12:09:25;7.15;;;4.22;;
27039;SDS011;14589;51.578;7.306;2023-05-07T12:11:56;4.80;;;3.28;;
27039;SDS011;14589;51.578;7.306;2023-05-07T12:14:29;6.78;;;4.43;;
27039;SDS011;14589;51.578;7.306;2023-05-07T12:17:00;7.18;;;3.28;;
27039;SDS011;14589;51.578;7.306;2023-05-07T12:19:33;7.07;;;4.00;;
27039;SDS011;14589;51.578;7.306;2023-05-07T12:24:45;9.48;;;4.57;;
27039;SDS011;14589;51.578;7.306;2023-05-07T12:27:17;9.70;;;5.68;;
27039;SDS011;14589;51.578;7.306;2023-05-07T12:29:48;7.60;;;4.53;;
27039;SDS011;14589;51.578;7.306;2023-05-07T12:32:20;7.00;;;5.05;;
27039;SDS011;14589;51.578;7.306;2023-05-07T12:34:51;6.32;;;3.78;;
27039;SDS011;14589;51.578;7.306;2023-05-07T12:37:24;10.90;;;4.75;;
27039;SDS011;14589;51.578;7.306;2023-05-07T12:40:05;9.45;;;4.82;;
27039;SDS011;14589;51.578;7.306;2023-05-07T12:42:37;5.57;;;3.00;;
27039;SDS011;14589;51.578;7.306;2023-05-07T12:45:10;5.63;;;3.30;;
27039;SDS011;14589;51.578;7.306;2023-05-07T12:47:45;5.88;;;3.38;;
27039;SDS011;14589;51.578;7.306;2023-05-07T12:50:16;6.93;;;3.60;;
27039;SDS011;14589;51.578;7.306;2023-05-07T12:52:47;6.18;;;2.70;;
27039;SDS011;14589;51.578;7.306;2023-05-07T12:55:18;6.47;;;3.50;;
27039;SDS011;14589;51.578;7.306;2023-05-07T12:57:49;5.82;;;3.22;;
27039;SDS011;14589;51.578;7.306;2023-05-07T13:00:33;4.80;;;3.50;;
27039;SDS011;14589;51.578;7.306;2023-05-07T13:03:07;6.65;;;4.10;;
27039;SDS011;14589;51.578;7.306;2023-05-07T13:05:38;4.85;;;2.28;;
27039;SDS011;14589;51.578;7.306;2023-05-07T13:08:09;6.13;;;2.85;;
27039;SDS011;14589;51.578;7.306;2023-05-07T13:10:39;5.63;;;3.03;;
27039;SDS011;14589;51.578;7.306;2023-05-07T13:13:10;5.63;;;3.42;;
27039;SDS011;14589;51.578;7.306;2023-05-07T13:15:40;4.60;;;2.35;;
27039;SDS011;14589;51.578;7.306;2023-05-07T13:18:10;6.53;;;2.53;;
27039;SDS011;14589;51.578;7.306;2023-05-07T13:20:41;7.05;;;4.22;;
27039;SDS011;14589;51.578;7.306;2023-05-07T13:23:11;9.35;;;3.42;;
27039;SDS011;14589;51.578;7.306;2023-05-07T13:25:42;2.95;;;1.30;;
27039;SDS011;14589;51.578;7.306;2023-05-07T13:28:12;6.55;;;2.45;;
27039;SDS011;14589;51.578;7.306;2023-05-07T13:30:45;4.03;;;2.80;;
27039;SDS011;14589;51.578;7.306;2023-05-07T13:33:16;6.07;;;2.78;;
27039;SDS011;14589;51.578;7.306;2023-05-07T13:35:47;4.03;;;2.17;;
27039;SDS011;14589;51.578;7.306;2023-05-07T13:38:17;5.25;;;2.28;;
27039;SDS011;14589;51.578;7.306;2023-05-07T13:40:48;3.72;;;2.75;;
27039;SDS011;14589;51.578;7.306;2023-05-07T13:43:18;3.03;;;1.90;;
27039;SDS011;14589;51.578;7.306;2023-05-07T13:45:49;3.30;;;1.92;;
27039;SDS011;14589;51.578;7.306;2023-05-07T13:48:19;5.95;;;2.45;;
27039;SDS011;14589;51.578;7.306;2023-05-07T13:50:50;4.10;;;1.88;;
27039;SDS011;14589;51.578;7.306;2023-05-07T13:53:21;3.83;;;1.65;;
27039;SDS011;14589;51.578;7.306;2023-05-07T13:55:51;4.75;;;2.65;;
27039;SDS011;14589;51.578;7.306;2023-05-07T13:58:22;3.83;;;2.00;;
27039;SDS011;14589;51.578;7.306;2023-05-07T14:00:52;5.43;;;2.22;;
27039;SDS011;14589;51.578;7.306;2023-05-07T14:03:23;4.18;;;2.40;;
27039;SDS011;14589;51.578;7.306;2023-05-07T14:05:53;6.07;;;2.80;;
27039;SDS011;14589;51.578;7.306;2023-05-07T14:08:25;4.13;;;1.83;;
27039;SDS011;14589;51.578;7.306;2023-05-07T14:10:56;4.88;;;1.80;;
27039;SDS011;14589;51.578;7.306;2023-05-07T14:13:26;4.75;;;1.95;;
27039;SDS011;14589;51.578;7.306;2023-05-07T14:15:57;4.85;;;2.53;;
27039;SDS011;14589;51.578;7.306;2023-05-07T14:18:28;5.22;;;1.85;;
27039;SDS011;14589;51.578;7.306;2023-05-07T14:20:59;4.30;;;2.00;;
27039;SDS011;14589;51.578;7.306;2023-05-07T14:23:29;4.30;;;2.00;;
27039;SDS011;14589;51.578;7.306;2023-05-07T14:26:00;4.93;;;1.85;;
27039;SDS011;14589;51.578;7.306;2023-05-07T14:28:30;3.17;;;2.15;;
27039;SDS011;14589;51.578;7.306;2023-05-07T14:31:01;2.47;;;1.85;;
27039;SDS011;14589;51.578;7.306;2023-05-07T14:33:32;5.97;;;3.45;;
27039;SDS011;14589;51.578;7.306;2023-05-07T14:36:02;4.10;;;1.75;;
27039;SDS011;14589;51.578;7.306;2023-05-07T14:38:33;2.83;;;1.60;;
27039;SDS011;14589;51.578;7.306;2023-05-07T14:41:04;4.05;;;1.88;;
27039;SDS011;14589;51.578;7.306;2023-05-07T14:43:34;5.18;;;2.35;;
27039;SDS011;14589;51.578;7.306;2023-05-07T14:46:06;5.28;;;3.03;;
27039;SDS011;14589;51.578;7.306;2023-05-07T14:48:38;5.30;;;3.20;;
27039;SDS011;14589;51.578;7.306;2023-05-07T14:51:09;5.78;;;2.85;;
27039;SDS011;14589;51.578;7.306;2023-05-07T14:53:42;5.75;;;3.40;;
27039;SDS011;14589;51.578;7.306;2023-05-07T14:56:13;6.07;;;3.28;;
27039;SDS011;14589;51.578;7.306;2023-05-07T14:58:45;7.32;;;3.65;;
27039;SDS011;14589;51.578;7.306;2023-05-07T15:01:17;6.82;;;4.13;;
27039;SDS011;14589;51.578;7.306;2023-05-07T15:03:47;9.20;;;3.17;;
27039;SDS011;14589;51.578;7.306;2023-05-07T15:06:18;5.78;;;3.20;;
27039;SDS011;14589;51.578;7.306;2023-05-07T15:08:48;7.30;;;3.95;;
27039;SDS011;14589;51.578;7.306;2023-05-07T15:11:20;8.02;;;4.80;;
27039;SDS011;14589;51.578;7.306;2023-05-07T15:13:51;4.95;;;2.75;;
27039;SDS011;14589;51.578;7.306;2023-05-07T15:16:21;4.90;;;3.13;;
27039;SDS011;14589;51.578;7.306;2023-05-07T15:18:53;5.82;;;2.53;;
27039;SDS011;14589;51.578;7.306;2023-05-07T15:23:56;4.53;;;2.15;;
27039;SDS011;14589;51.578;7.306;2023-05-07T15:26:27;5.00;;;2.85;;
27039;SDS011;14589;51.578;7.306;2023-05-07T15:28:57;4.75;;;2.40;;
27039;SDS011;14589;51.578;7.306;2023-05-07T15:31:28;4.07;;;2.13;;
27039;SDS011;14589;51.578;7.306;2023-05-07T15:33:59;5.40;;;2.83;;
27039;SDS011;14589;51.578;7.306;2023-05-07T15:36:30;4.65;;;2.70;;
27039;SDS011;14589;51.578;7.306;2023-05-07T15:39:01;5.38;;;2.70;;
27039;SDS011;14589;51.578;7.306;2023-05-07T15:41:33;7.40;;;2.42;;
27039;SDS011;14589;51.578;7.306;2023-05-07T15:44:04;5.68;;;2.70;;
27039;SDS011;14589;51.578;7.306;2023-05-07T15:46:34;5.25;;;1.90;;
27039;SDS011;14589;51.578;7.306;2023-05-07T15:49:05;4.47;;;1.85;;
27039;SDS011;14589;51.578;7.306;2023-05-07T15:51:35;3.83;;;2.40;;
27039;SDS011;14589;51.578;7.306;2023-05-07T15:54:06;5.13;;;2.55;;
27039;SDS011;14589;51.578;7.306;2023-05-07T15:56:36;4.13;;;2.13;;
27039;SDS011;14589;51.578;7.306;2023-05-07T15:59:06;4.07;;;1.83;;
27039;SDS011;14589;51.578;7.306;2023-05-07T16:01:37;4.40;;;3.22;;
27039;SDS011;14589;51.578;7.306;2023-05-07T16:04:08;3.45;;;2.15;;
27039;SDS011;14589;51.578;7.306;2023-05-07T16:06:39;4.15;;;2.20;;
27039;SDS011;14589;51.578;7.306;2023-05-07T16:09:10;4.20;;;2.35;;
27039;SDS011;14589;51.578;7.306;2023-05-07T16:11:40;4.25;;;2.22;;
27039;SDS011;14589;51.578;7.306;2023-05-07T16:14:10;3.42;;;1.83;;
27039;SDS011;14589;51.578;7.306;2023-05-07T16:16:41;3.00;;;1.60;;
27039;SDS011;14589;51.578;7.306;2023-05-07T16:19:11;2.90;;;1.50;;
27039;SDS011;14589;51.578;7.306;2023-05-07T16:21:42;4.68;;;2.90;;
27039;SDS011;14589;51.578;7.306;2023-05-07T16:24:13;3.78;;;2.45;;